createdAt,value
2023-01-21T00:02:04.947Z,-1.76
2023-01-21T00:04:34.499Z,-1.87
2023-01-21T00:07:01.581Z,-1.79
2023-01-21T00:09:28.341Z,-1.72
2023-01-21T00:14:21.674Z,-1.84
2023-01-21T00:16:48.179Z,-1.81
2023-01-21T00:19:14.710Z,-1.83
2023-01-21T00:21:41.359Z,-1.80
2023-01-21T00:24:07.894Z,-1.89
2023-01-21T00:26:34.629Z,-1.90
2023-01-21T00:31:35.763Z,-1.83
2023-01-21T00:34:02.461Z,-1.91
2023-01-21T00:39:23.607Z,-1.74
2023-01-21T00:44:19.905Z,-1.74
2023-01-21T00:46:48.939Z,-1.78
2023-01-21T00:49:15.725Z,-1.73
2023-01-21T00:51:43.165Z,-1.56
2023-01-21T00:54:10.293Z,-1.53
2023-01-21T00:59:44.593Z,-1.70
2023-01-21T01:02:11.930Z,-1.64
2023-01-21T01:04:47.990Z,-1.74
2023-01-21T01:07:26.636Z,-1.64
2023-01-21T01:12:30.342Z,-1.78
2023-01-21T01:15:00.277Z,-1.78
2023-01-21T01:45:08.164Z,-1.56
2023-01-21T01:50:42.674Z,-1.62
2023-01-21T01:53:17.241Z,-1.77
2023-01-21T01:55:48.087Z,-1.79
2023-01-21T01:58:17.528Z,-1.82
2023-01-21T02:00:46.042Z,-1.71
2023-01-21T02:03:34.248Z,-1.66
2023-01-21T02:06:02.751Z,-1.64
2023-01-21T02:08:31.107Z,-1.74
2023-01-21T02:10:58.074Z,-1.84
2023-01-21T02:13:29.115Z,-1.88
2023-01-21T02:16:27.299Z,-1.98
2023-01-21T02:19:11.637Z,-2.02
2023-01-21T02:21:49.476Z,-2.08
2023-01-21T02:25:02.536Z,-2.07
2023-01-21T02:28:01.282Z,-2.12
2023-01-21T02:30:46.144Z,-2.13
2023-01-21T02:33:31.830Z,-2.18
2023-01-21T02:36:12.135Z,-2.16
2023-01-21T02:41:34.786Z,-2.29
2023-01-21T02:44:21.650Z,-2.27
2023-01-21T02:49:27.383Z,-2.27
2023-01-21T02:54:39.124Z,-2.27
2023-01-21T02:57:11.995Z,-2.24
2023-01-21T02:59:42.206Z,-2.29
2023-01-21T03:02:39.611Z,-2.30
2023-01-21T03:05:34.578Z,-2.27
2023-01-21T03:08:11.487Z,-2.30
2023-01-21T03:16:46.828Z,-2.33
2023-01-21T03:19:17.021Z,-2.33
2023-01-21T03:21:44.657Z,-2.34
2023-01-21T03:24:14.348Z,-2.38
2023-01-21T03:26:45.654Z,-2.37
2023-01-21T03:29:19.447Z,-2.37
2023-01-21T03:31:50.829Z,-2.33
2023-01-21T03:34:20.140Z,-2.38
2023-01-21T03:36:46.856Z,-2.42
2023-01-21T03:39:21.765Z,-2.40
2023-01-21T03:41:48.583Z,-2.39
2023-01-21T03:44:15.274Z,-2.35
2023-01-21T03:49:25.476Z,-2.55
2023-01-21T03:51:55.627Z,-2.52
2023-01-21T03:54:22.624Z,-2.53
2023-01-21T03:56:49.123Z,-2.47
2023-01-21T03:59:15.563Z,-2.54
2023-01-21T04:01:42.146Z,-2.32
2023-01-21T04:04:09.627Z,-2.11
2023-01-21T04:06:37.068Z,-2.19
2023-01-21T04:09:05.576Z,-2.29
2023-01-21T04:11:32.687Z,-2.32
2023-01-21T04:15:04.208Z,-2.13
2023-01-21T04:17:32.892Z,-2.30
2023-01-21T04:19:59.751Z,-2.42
2023-01-21T04:24:57.657Z,-2.39
2023-01-21T04:27:24.366Z,-2.34
2023-01-21T04:32:17.671Z,-2.45
2023-01-21T04:34:44.388Z,-2.41
2023-01-21T04:39:37.605Z,-2.40
2023-01-21T04:42:05.324Z,-2.41
2023-01-21T04:44:34.907Z,-2.48
2023-01-21T04:47:01.546Z,-2.54
2023-01-21T04:51:54.774Z,-2.48
2023-01-21T04:56:47.950Z,-2.44
2023-01-21T04:59:14.572Z,-2.45
2023-01-21T05:01:41.205Z,-2.39
2023-01-21T05:04:07.639Z,-2.33
2023-01-21T05:06:34.289Z,-2.24
2023-01-21T05:09:00.828Z,-2.27
2023-01-21T05:13:57.243Z,-2.06
2023-01-21T05:18:52.754Z,-2.03
2023-01-21T05:21:19.375Z,-2.00
2023-01-21T05:23:45.965Z,-2.02
2023-01-21T05:26:12.487Z,-2.12
2023-01-21T05:28:39.230Z,-2.16
2023-01-21T05:31:05.919Z,-2.17
2023-01-21T05:36:01.662Z,-2.17
2023-01-21T05:38:29.042Z,-2.05
2023-01-21T05:41:00.615Z,-2.05
2023-01-21T05:43:27.819Z,-1.98
2023-01-21T05:45:54.936Z,-1.98
2023-01-21T05:50:49.045Z,-1.98
2023-01-21T05:53:17.122Z,-1.89
2023-01-21T05:55:43.756Z,-1.83
2023-01-21T05:58:10.223Z,-1.87
2023-01-21T06:05:57.324Z,-1.91
2023-01-21T06:10:50.644Z,-1.78
2023-01-21T06:13:18.352Z,-1.72
2023-01-21T06:15:45.036Z,-1.74
2023-01-21T06:18:14.271Z,-1.75
2023-01-21T06:20:41.020Z,-1.72
2023-01-21T06:23:08.991Z,-1.84
2023-01-21T06:25:35.517Z,-1.79
2023-01-21T06:28:02.043Z,-1.90
2023-01-21T06:32:55.328Z,-1.89
2023-01-21T06:35:22.220Z,-1.94
2023-01-21T06:37:48.860Z,-1.97
2023-01-21T06:40:16.375Z,-1.88
2023-01-21T06:42:46.301Z,-1.86
2023-01-21T06:45:12.884Z,-1.96
2023-01-21T06:47:43.709Z,-1.96
2023-01-21T06:50:16.004Z,-1.90
2023-01-21T06:52:44.059Z,-1.93
2023-01-21T06:55:10.632Z,-1.89
2023-01-21T06:57:38.635Z,-1.84
2023-01-21T07:00:07.270Z,-1.72
2023-01-21T07:05:00.650Z,-1.69
2023-01-21T07:09:53.998Z,-1.62
2023-01-21T07:12:20.745Z,-1.62
2023-01-21T07:14:49.740Z,-1.65
2023-01-21T07:17:16.643Z,-1.59
2023-01-21T07:19:43.355Z,-1.60
2023-01-21T07:22:10.051Z,-1.56
2023-01-21T07:24:36.742Z,-1.43
2023-01-21T07:27:05.303Z,-1.44
2023-01-21T07:29:34.624Z,-1.49
2023-01-21T07:32:01.357Z,-1.54
2023-01-21T07:34:30.735Z,-1.47
2023-01-21T07:36:57.523Z,-1.53
2023-01-21T07:39:25.083Z,-1.60
2023-01-21T07:41:53.880Z,-1.60
2023-01-21T07:44:20.531Z,-1.58
2023-01-21T07:46:47.194Z,-1.61
2023-01-21T07:49:17.330Z,-1.59
2023-01-21T07:51:48.066Z,-1.59
2023-01-21T07:54:15.356Z,-1.49
2023-01-21T07:56:42.281Z,-1.46
2023-01-21T07:59:10.600Z,-1.51
2023-01-21T08:01:37.648Z,-1.47
2023-01-21T08:04:04.440Z,-1.52
2023-01-21T08:09:00.320Z,-1.53
2023-01-21T08:11:26.976Z,-1.54
2023-01-21T08:13:53.644Z,-1.50
2023-01-21T08:16:20.611Z,-1.49
2023-01-21T08:18:47.297Z,-1.39
2023-01-21T08:21:14.133Z,-1.41
2023-01-21T08:23:40.859Z,-1.28
2023-01-21T08:26:10.175Z,-1.27
2023-01-21T08:28:36.797Z,-1.24
2023-01-21T08:31:06.313Z,-1.15
2023-01-21T08:36:04.869Z,-1.14
2023-01-21T08:38:32.106Z,-1.17
2023-01-21T08:43:44.156Z,-1.00
2023-01-21T08:46:10.915Z,-0.93
2023-01-21T08:48:38.674Z,-0.86
2023-01-21T08:51:05.808Z,-0.79
2023-01-21T08:53:33.159Z,-0.74
2023-01-21T08:56:01.427Z,-0.78
2023-01-21T08:58:29.500Z,-0.75
2023-01-21T09:00:59.094Z,-0.78
2023-01-21T09:05:53.075Z,-0.73
2023-01-21T09:11:01.389Z,-0.58
2023-01-21T09:13:37.197Z,-0.50
2023-01-21T09:18:40.299Z,-0.32
2023-01-21T09:23:38.076Z,-0.22
2023-01-21T09:26:06.041Z,-0.21
2023-01-21T09:28:40.171Z,-0.03
2023-01-21T09:31:18.323Z,-0.09
2023-01-21T09:33:52.019Z,-0.04
2023-01-21T09:38:57.472Z,-0.13
2023-01-21T09:41:27.030Z,-0.11
2023-01-21T09:43:53.515Z,-0.13
2023-01-21T09:46:44.685Z,-0.27
2023-01-21T09:49:22.457Z,-0.34
2023-01-21T09:51:55.321Z,-0.34
2023-01-21T09:54:36.115Z,-0.34
2023-01-21T09:57:24.364Z,-0.24
2023-01-21T10:00:08.391Z,-0.19
2023-01-21T10:02:53.838Z,-0.17
2023-01-21T10:05:42.264Z,-0.02
2023-01-21T10:08:39.965Z,-0.07
2023-01-21T10:11:10.004Z,-0.02
2023-01-21T10:14:01.454Z,-0.24
2023-01-21T10:17:06.348Z,-0.28
2023-01-21T10:19:42.460Z,-0.24
2023-01-21T10:22:14.307Z,-0.33
2023-01-21T10:24:51.697Z,-0.41
2023-01-21T10:29:56.058Z,-0.51
2023-01-21T10:34:55.843Z,-0.59
2023-01-21T10:40:45.453Z,-0.48
2023-01-21T10:43:33.379Z,-0.53
2023-01-21T10:46:17.441Z,-0.52
2023-01-21T10:48:55.477Z,-0.36
2023-01-21T10:54:16.098Z,-0.20
2023-01-21T10:56:53.975Z,-0.33
2023-01-21T10:59:27.994Z,-0.31
2023-01-21T11:02:21.021Z,-0.42
2023-01-21T11:04:51.488Z,-0.39
2023-01-21T11:15:18.661Z,-0.26
2023-01-21T11:20:45.215Z,-0.24
2023-01-21T11:23:37.793Z,-0.23
2023-01-21T11:26:35.044Z,-0.22
2023-01-21T11:29:18.177Z,-0.15
2023-01-21T11:31:48.826Z,-0.17
2023-01-21T11:34:24.408Z,-0.17
2023-01-21T11:42:14.297Z,-0.20
2023-01-21T11:44:59.283Z,-0.42
2023-01-21T11:47:30.692Z,-0.51
2023-01-21T11:50:30.088Z,-0.42
2023-01-21T11:53:17.083Z,-0.39
2023-01-21T11:55:57.215Z,-0.43
2023-01-21T11:58:32.226Z,-0.35
2023-01-21T12:01:01.941Z,-0.23
2023-01-21T12:03:37.336Z,-0.17
2023-01-21T12:06:07.537Z,-0.22
2023-01-21T12:11:07.489Z,0.07
2023-01-21T12:14:08.619Z,-0.09
2023-01-21T12:19:23.749Z,-0.16
2023-01-21T12:22:04.945Z,-0.22
2023-01-21T12:24:44.520Z,-0.31
2023-01-21T12:27:13.848Z,-0.18
2023-01-21T12:30:21.973Z,-0.03
2023-01-21T12:33:04.032Z,0.06
2023-01-21T12:35:39.551Z,0.10
2023-01-21T12:38:26.726Z,-0.06
2023-01-21T12:41:20.830Z,-0.04
2023-01-21T12:44:02.479Z,0.06
2023-01-21T12:46:43.639Z,0.29
2023-01-21T12:49:19.054Z,0.26
2023-01-21T12:51:50.431Z,-0.03
2023-01-21T12:54:19.879Z,0.17
2023-01-21T12:57:01.417Z,0.08
2023-01-21T12:59:44.370Z,0.02
2023-01-21T13:02:23.978Z,0.19
2023-01-21T13:04:53.994Z,0.29
2023-01-21T13:07:48.861Z,0.19
2023-01-21T13:10:32.186Z,0.30
2023-01-21T13:13:06.434Z,0.12
2023-01-21T13:15:38.018Z,0.06
2023-01-21T13:18:25.284Z,0.00
2023-01-21T13:20:56.203Z,0.21
2023-01-21T13:26:26.761Z,0.22
2023-01-21T13:29:20.925Z,0.11
2023-01-21T13:32:22.328Z,-0.04
2023-01-21T13:35:36.411Z,-0.17
2023-01-21T13:41:21.557Z,0.03
2023-01-21T13:44:14.725Z,-0.06
2023-01-21T13:47:25.635Z,0.00
2023-01-21T13:50:18.275Z,0.22
2023-01-21T13:53:06.155Z,0.27
2023-01-21T13:56:12.453Z,0.10
2023-01-21T13:59:05.498Z,-0.11
2023-01-21T14:01:44.551Z,-0.02
2023-01-21T14:04:34.952Z,0.13
2023-01-21T14:07:19.318Z,0.21
2023-01-21T14:09:53.884Z,0.42
2023-01-21T14:12:26.963Z,0.30
2023-01-21T14:15:05.677Z,0.35
2023-01-21T14:17:50.040Z,0.39
2023-01-21T14:20:38.753Z,0.28
2023-01-21T14:23:25.410Z,0.18
2023-01-21T14:26:28.255Z,0.25
2023-01-21T14:29:12.139Z,0.05
2023-01-21T14:31:47.079Z,-0.03
2023-01-21T14:34:17.205Z,-0.01
2023-01-21T14:37:06.644Z,-0.07
2023-01-21T14:39:59.329Z,-0.10
2023-01-21T14:42:46.239Z,-0.14
2023-01-21T14:45:15.513Z,-0.11
2023-01-21T14:47:57.991Z,-0.22
2023-01-21T14:56:16.793Z,-0.01
2023-01-21T14:58:59.376Z,0.02
2023-01-21T15:04:24.708Z,0.09
2023-01-21T15:07:04.161Z,0.06
2023-01-21T15:09:36.056Z,0.03
2023-01-21T15:12:07.062Z,0.09
2023-01-21T15:14:36.844Z,0.11
2023-01-21T15:17:03.551Z,0.09
2023-01-21T15:19:38.070Z,0.00
2023-01-21T15:22:18.577Z,0.07
2023-01-21T15:25:18.789Z,0.17
2023-01-21T15:28:23.930Z,0.11
2023-01-21T15:31:03.314Z,0.01
2023-01-21T15:33:30.787Z,0.02
2023-01-21T15:36:00.128Z,0.04
2023-01-21T15:38:28.189Z,-0.02
2023-01-21T15:41:00.379Z,-0.07
2023-01-21T15:43:55.266Z,-0.14
2023-01-21T15:49:22.569Z,-0.31
2023-01-21T15:52:16.679Z,-0.36
2023-01-21T15:54:55.814Z,-0.24
2023-01-21T15:57:34.591Z,-0.17
2023-01-21T16:00:23.653Z,-0.19
2023-01-21T16:03:11.880Z,-0.30
2023-01-21T16:05:52.770Z,-0.29
2023-01-21T16:08:51.129Z,-0.24
2023-01-21T16:11:30.056Z,-0.28
2023-01-21T16:13:56.830Z,-0.21
2023-01-21T16:16:46.986Z,-0.24
2023-01-21T16:19:30.644Z,-0.15
2023-01-21T16:22:01.419Z,-0.05
2023-01-21T16:24:29.997Z,-0.05
2023-01-21T16:27:19.874Z,0.12
2023-01-21T16:29:46.771Z,0.16
2023-01-21T16:32:20.234Z,0.27
2023-01-21T16:34:48.061Z,0.07
2023-01-21T16:37:20.928Z,0.03
2023-01-21T16:39:48.154Z,-0.11
2023-01-21T16:42:23.929Z,-0.01
2023-01-21T16:44:51.538Z,0.04
2023-01-21T16:47:27.707Z,0.05
2023-01-21T16:52:24.561Z,0.02
2023-01-21T16:54:56.304Z,0.07
2023-01-21T16:57:32.002Z,-0.01
2023-01-21T17:00:02.764Z,-0.06
2023-01-21T17:02:32.730Z,-0.03
2023-01-21T17:05:06.320Z,0.05
2023-01-21T17:07:39.074Z,0.07
2023-01-21T17:10:22.045Z,0.05
2023-01-21T17:12:53.982Z,0.13
2023-01-21T17:15:36.344Z,0.10
2023-01-21T17:18:04.946Z,0.12
2023-01-21T17:23:21.097Z,0.16
2023-01-21T17:26:00.499Z,0.18
2023-01-21T17:28:39.395Z,0.22
2023-01-21T17:31:23.183Z,0.17
2023-01-21T17:34:28.985Z,0.09
2023-01-21T17:36:57.371Z,0.22
2023-01-21T17:39:49.171Z,0.19
2023-01-21T17:42:15.618Z,0.05
2023-01-21T17:44:46.396Z,-0.09
2023-01-21T17:47:29.513Z,-0.06
2023-01-21T17:50:47.390Z,-0.11
2023-01-21T17:53:27.414Z,-0.12
2023-01-21T17:56:00.149Z,-0.13
2023-01-21T17:58:34.129Z,-0.04
2023-01-21T18:01:02.311Z,-0.08
2023-01-21T18:03:30.076Z,-0.01
2023-01-21T18:05:57.739Z,0.12
2023-01-21T18:08:32.808Z,-0.07
2023-01-21T18:10:59.453Z,-0.10
2023-01-21T18:13:26.033Z,-0.12
2023-01-21T18:15:54.188Z,-0.09
2023-01-21T18:18:25.571Z,-0.02
2023-01-21T18:20:52.327Z,0.09
2023-01-21T18:23:21.929Z,-0.01
2023-01-21T18:25:55.226Z,0.00
2023-01-21T18:28:33.668Z,0.01
2023-01-21T18:31:02.369Z,-0.01
2023-01-21T18:33:29.064Z,-0.04
2023-01-21T18:35:55.695Z,-0.04
2023-01-21T18:38:27.616Z,-0.01
2023-01-21T18:40:55.214Z,-0.07
2023-01-21T18:43:22.776Z,-0.03
2023-01-21T18:45:53.998Z,-0.07
2023-01-21T18:48:27.444Z,-0.10
2023-01-21T18:50:54.213Z,-0.09
2023-01-21T18:53:20.798Z,-0.21
2023-01-21T18:55:53.600Z,-0.26
2023-01-21T18:58:21.630Z,-0.20
2023-01-21T19:03:17.201Z,-0.17
2023-01-21T19:05:47.888Z,-0.17
2023-01-21T19:08:19.677Z,-0.28
2023-01-21T19:10:46.188Z,-0.24
2023-01-21T19:13:12.990Z,-0.26
2023-01-21T19:15:39.608Z,-0.29
2023-01-21T19:18:13.663Z,-0.23
2023-01-21T19:20:41.385Z,-0.27
2023-01-21T19:23:16.330Z,-0.26
2023-01-21T19:28:15.103Z,-0.33
2023-01-21T19:30:45.081Z,-0.28
2023-01-21T19:33:12.526Z,-0.28
2023-01-21T19:35:42.495Z,-0.40
2023-01-21T19:38:15.569Z,-0.44
2023-01-21T19:40:42.985Z,-0.47
2023-01-21T19:43:14.449Z,-0.51
2023-01-21T19:45:41.218Z,-0.55
2023-01-21T19:48:12.929Z,-0.47
2023-01-21T19:50:39.821Z,-0.53
2023-01-21T19:53:06.411Z,-0.55
2023-01-21T19:55:36.108Z,-0.56
2023-01-21T19:58:05.428Z,-0.55
2023-01-21T20:00:35.044Z,-0.61
2023-01-21T20:03:02.453Z,-0.62
2023-01-21T20:05:33.976Z,-0.60
2023-01-21T20:08:01.105Z,-0.56
2023-01-21T20:10:33.623Z,-0.52
2023-01-21T20:13:02.720Z,-0.53
2023-01-21T20:15:32.527Z,-0.58
2023-01-21T20:18:01.278Z,-0.61
2023-01-21T20:20:33.488Z,-0.62
2023-01-21T20:23:00.989Z,-0.56
2023-01-21T20:25:38.742Z,-0.52
2023-01-21T20:28:16.596Z,-0.54
2023-01-21T20:30:43.443Z,-0.58
2023-01-21T20:33:11.745Z,-0.63
2023-01-21T20:35:38.402Z,-0.59
2023-01-21T20:38:11.034Z,-0.56
2023-01-21T20:40:37.721Z,-0.68
2023-01-21T20:43:04.368Z,-0.64
2023-01-21T20:45:47.837Z,-0.55
2023-01-21T20:48:26.072Z,-0.58
2023-01-21T20:50:53.169Z,-0.58
2023-01-21T20:53:20.207Z,-0.62
2023-01-21T20:55:49.831Z,-0.54
2023-01-21T20:58:19.042Z,-0.51
2023-01-21T21:00:46.702Z,-0.52
2023-01-21T21:03:15.126Z,-0.46
2023-01-21T21:05:41.718Z,-0.38
2023-01-21T21:08:13.910Z,-0.35
2023-01-21T21:10:40.586Z,-0.40
2023-01-21T21:13:07.490Z,-0.40
2023-01-21T21:15:40.797Z,-0.30
2023-01-21T21:18:08.272Z,-0.31
2023-01-21T21:20:40.130Z,-0.33
2023-01-21T21:23:07.738Z,-0.33
2023-01-21T21:25:40.497Z,-0.24
2023-01-21T21:28:07.656Z,-0.19
2023-01-21T21:30:34.253Z,-0.12
2023-01-21T21:33:01.339Z,-0.18
2023-01-21T21:35:46.934Z,-0.21
2023-01-21T21:38:21.641Z,-0.21
2023-01-21T21:40:52.786Z,-0.26
2023-01-21T21:43:38.793Z,-0.23
2023-01-21T21:46:28.280Z,-0.17
2023-01-21T21:48:54.839Z,-0.14
2023-01-21T21:51:22.521Z,-0.14
2023-01-21T21:53:52.086Z,-0.11
2023-01-21T21:56:23.237Z,-0.14
2023-01-21T21:58:51.475Z,-0.18
2023-01-21T22:01:23.887Z,-0.20
2023-01-21T22:03:51.105Z,-0.24
2023-01-21T22:06:20.148Z,-0.17
2023-01-21T22:08:46.897Z,-0.10
2023-01-21T22:11:17.082Z,-0.09
2023-01-21T22:13:44.640Z,-0.13
2023-01-21T22:16:14.323Z,-0.16
2023-01-21T22:18:40.950Z,-0.13
2023-01-21T22:21:19.271Z,-0.15
2023-01-21T22:23:46.008Z,-0.17
2023-01-21T22:26:14.498Z,-0.20
2023-01-21T22:28:42.265Z,-0.15
2023-01-21T22:31:14.688Z,-0.08
2023-01-21T22:33:41.328Z,-0.16
2023-01-21T22:36:10.606Z,-0.13
2023-01-21T22:38:40.314Z,-0.08
2023-01-21T22:41:08.019Z,-0.09
2023-01-21T22:43:35.133Z,-0.09
2023-01-21T22:46:01.997Z,-0.07
2023-01-21T22:48:30.531Z,-0.01
2023-01-21T22:50:59.568Z,-0.08
2023-01-21T22:53:27.482Z,-0.05
2023-01-21T22:55:57.946Z,0.02
2023-01-21T22:58:25.287Z,-0.07
2023-01-21T23:00:53.113Z,-0.11
2023-01-21T23:03:20.950Z,-0.13
2023-01-21T23:05:47.807Z,-0.12
2023-01-21T23:08:15.281Z,-0.03
2023-01-21T23:10:42.694Z,-0.01
2023-01-21T23:13:10.525Z,-0.09
2023-01-21T23:15:42.272Z,-0.14
2023-01-21T23:18:08.828Z,-0.15
2023-01-21T23:20:37.006Z,-0.07
2023-01-21T23:23:03.575Z,-0.11
2023-01-21T23:25:30.246Z,-0.10
2023-01-21T23:28:04.927Z,-0.04
2023-01-21T23:30:39.366Z,-0.05
2023-01-21T23:33:13.753Z,-0.01
2023-01-21T23:35:52.309Z,0.07
2023-01-21T23:38:27.720Z,0.09
2023-01-21T23:44:05.014Z,0.14
2023-01-21T23:46:35.355Z,0.12
2023-01-21T23:49:06.734Z,0.10
2023-01-21T23:55:07.505Z,-0.03
2023-01-21T23:58:00.113Z,-0.05
